PWSweather.com
Personal Weather Stations
Station Observations

DeskleSI

Lat: 46.0525, Lon: 13.6103

Elevation: 300

Station Type: Oregon Scientific WMR200

http://vreme-deskle.slohosting.com/

Latest ConditionsUpdated 10:15:02 AM GMT+01:01 Friday, Feb 22, 2019
Currently Today's Max Today's Min Today's Average
Temperature 48.6°F9.2°C 48.6°F9.2°C 34.0°F1.1°C 37.5°F3.1°C
Dew Point 34.9°F1.6°C 36.1°F2.3°C 26.9°F-2.8°C 30.7°F-0.7°C
Winds 2.9 mph SE4.7 kmh SE 4.7 mph -7.6 kmh - - 1.8 mph 2.9 kmh
Wind Gusts 5.4 mph8.7 kmh 6.5 mph10.5 kmh - -
Humidity 59% 82% 59% 76%
Pressure 30.21 in1023.0 mb 30.24 in1024.0 mb 30.21 in1023.0 mb -
Hour Temp Dew Point Humidity Winds Wind Gusts Pressure Precip Precip Rate Daily Precip Total
10:15 AM 48.6°F9.2°C 34.9°F1.6°C 59% 2.9 mph SE4.7 kmh SE 5.4 mph8.7 kmh 30.21 in1023.0 mb 0.00 in0.0 mm 0.00 in0.0 mm 0.00 in0.0 mm
10:10 AM 47.8°F8.8°C 35.0°F1.7°C 61% 2.5 mph S4.0 kmh S 5.4 mph8.7 kmh 30.21 in1023.0 mb 0.00 in0.0 mm 0.00 in0.0 mm 0.00 in0.0 mm
10:05 AM 47.7°F8.7°C 35.7°F2.1°C 63% 1.6 mph SW2.6 kmh SW 4.0 mph6.4 kmh 30.21 in1023.0 mb 0.00 in0.0 mm 0.00 in0.0 mm 0.00 in0.0 mm
10:00 AM 47.3°F8.5°C 35.7°F2.1°C 64% 2.0 mph WSW3.2 kmh WSW 3.8 mph6.1 kmh 30.21 in1023.0 mb 0.00 in0.0 mm 0.00 in0.0 mm 0.00 in0.0 mm
09:55 AM 46.6°F8.1°C 35.4°F1.9°C 65% 1.3 mph S2.1 kmh S 3.6 mph5.8 kmh 30.21 in1023.0 mb 0.00 in0.0 mm 0.00 in0.0 mm 0.00 in0.0 mm
09:50 AM 46.6°F8.1°C 35.8°F2.1°C 66% Calm Calm 4.9 mph7.9 kmh 30.21 in1023.0 mb 0.00 in0.0 mm 0.00 in0.0 mm 0.00 in0.0 mm
09:45 AM 46.0°F7.8°C 36.1°F2.3°C 68% 2.7 mph SSE4.3 kmh SSE 5.4 mph8.7 kmh 30.21 in1023.0 mb 0.00 in0.0 mm 0.00 in0.0 mm 0.00 in0.0 mm
09:40 AM 45.7°F7.6°C 35.3°F1.8°C 67% 1.3 mph SE2.1 kmh SE 5.4 mph8.7 kmh 30.21 in1023.0 mb 0.00 in0.0 mm 0.00 in0.0 mm 0.00 in0.0 mm
09:35 AM 45.1°F7.3°C 34.5°F1.4°C 66% 3.4 mph SE5.5 kmh SE 4.3 mph6.9 kmh 30.21 in1023.0 mb 0.00 in0.0 mm 0.00 in0.0 mm 0.00 in0.0 mm
09:30 AM 43.9°F6.6°C 35.4°F1.9°C 72% 3.4 mph SE5.5 kmh SE 4.3 mph6.9 kmh 30.21 in1023.0 mb 0.00 in0.0 mm 0.00 in0.0 mm 0.00 in0.0 mm
09:25 AM 43.3°F6.3°C 34.9°F1.6°C 72% 2.9 mph SSE4.7 kmh SSE 4.9 mph7.9 kmh 30.21 in1023.0 mb 0.00 in0.0 mm 0.00 in0.0 mm 0.00 in0.0 mm
09:20 AM 43.0°F6.1°C 34.9°F1.6°C 73% 1.6 mph SE2.6 kmh SE 4.9 mph7.9 kmh 30.24 in1024.0 mb 0.00 in0.0 mm 0.00 in0.0 mm 0.00 in0.0 mm
09:15 AM 42.1°F5.6°C 34.0°F1.1°C 73% Calm Calm 3.6 mph5.8 kmh 30.24 in1024.0 mb 0.00 in0.0 mm 0.00 in0.0 mm 0.00 in0.0 mm
09:10 AM 41.5°F5.3°C 34.2°F1.2°C 75% Calm Calm 4.0 mph6.4 kmh 30.24 in1024.0 mb 0.00 in0.0 mm 0.00 in0.0 mm 0.00 in0.0 mm
09:05 AM 41.2°F5.1°C 34.2°F1.2°C 76% 1.3 mph ESE2.1 kmh ESE 4.9 mph7.9 kmh 30.21 in1023.0 mb 0.00 in0.0 mm 0.00 in0.0 mm 0.00 in0.0 mm
09:00 AM 40.5°F4.7°C 33.8°F1.0°C 77% 2.9 mph SE4.7 kmh SE 4.9 mph7.9 kmh 30.21 in1023.0 mb 0.00 in0.0 mm 0.00 in0.0 mm 0.00 in0.0 mm
08:55 AM 39.7°F4.3°C 33.8°F1.0°C 79% 2.7 mph E4.3 kmh E 4.3 mph6.9 kmh 30.21 in1023.0 mb 0.00 in0.0 mm 0.00 in0.0 mm 0.00 in0.0 mm
08:50 AM 38.8°F3.8°C 33.2°F0.7°C 80% 2.0 mph ENE3.2 kmh ENE 4.3 mph6.9 kmh 30.21 in1023.0 mb 0.00 in0.0 mm 0.00 in0.0 mm 0.00 in0.0 mm
08:45 AM 38.3°F3.5°C 33.3°F0.7°C 82% 3.6 mph E5.8 kmh E 4.0 mph6.4 kmh 30.21 in1023.0 mb 0.00 in0.0 mm 0.00 in0.0 mm 0.00 in0.0 mm
08:40 AM 37.8°F3.2°C 32.8°F0.4°C 82% 2.5 mph ESE4.0 kmh ESE 3.4 mph5.5 kmh 30.21 in1023.0 mb 0.00 in0.0 mm 0.00 in0.0 mm 0.00 in0.0 mm
08:35 AM 37.2°F2.9°C 32.2°F0.1°C 82% 1.6 mph SE2.6 kmh SE 2.7 mph4.3 kmh 30.21 in1023.0 mb 0.00 in0.0 mm 0.00 in0.0 mm 0.00 in0.0 mm
08:30 AM 36.7°F2.6°C 31.1°F-0.5°C 80% Calm Calm 2.7 mph4.3 kmh 30.21 in1023.0 mb 0.00 in0.0 mm 0.00 in0.0 mm 0.00 in0.0 mm
08:25 AM 36.3°F2.4°C 30.7°F-0.7°C 80% 1.1 mph E1.8 kmh E 2.7 mph4.3 kmh 30.21 in1023.0 mb 0.00 in0.0 mm 0.00 in0.0 mm 0.00 in0.0 mm
08:20 AM 36.0°F2.2°C 30.1°F-1.1°C 79% Calm Calm 2.7 mph4.3 kmh 30.21 in1023.0 mb 0.00 in0.0 mm 0.00 in0.0 mm 0.00 in0.0 mm
08:15 AM 35.8°F2.1°C 29.9°F-1.2°C 79% 2.0 mph S3.2 kmh S 3.6 mph5.8 kmh 30.21 in1023.0 mb 0.00 in0.0 mm 0.00 in0.0 mm 0.00 in0.0 mm
08:10 AM 35.6°F2.0°C 29.4°F-1.4°C 78% 2.5 mph S4.0 kmh S 3.6 mph5.8 kmh 30.21 in1023.0 mb 0.00 in0.0 mm 0.00 in0.0 mm 0.00 in0.0 mm
08:05 AM 35.2°F1.8°C 29.4°F-1.4°C 79% Calm Calm 3.1 mph5.0 kmh 30.21 in1023.0 mb 0.00 in0.0 mm 0.00 in0.0 mm 0.00 in0.0 mm
08:00 AM 34.9°F1.6°C 29.0°F-1.7°C 79% 1.6 mph ENE2.6 kmh ENE 3.1 mph5.0 kmh 30.21 in1023.0 mb 0.00 in0.0 mm 0.00 in0.0 mm 0.00 in0.0 mm
07:55 AM 34.7°F1.5°C 28.9°F-1.7°C 79% 0.9 mph SE1.4 kmh SE 3.4 mph5.5 kmh 30.21 in1023.0 mb 0.00 in0.0 mm 0.00 in0.0 mm 0.00 in0.0 mm
07:50 AM 34.9°F1.6°C 29.0°F-1.7°C 79% 1.1 mph E1.8 kmh E 3.4 mph5.5 kmh 30.21 in1023.0 mb 0.00 in0.0 mm 0.00 in0.0 mm 0.00 in0.0 mm
07:45 AM 35.1°F1.7°C 29.2°F-1.6°C 79% Calm Calm 3.1 mph5.0 kmh 30.21 in1023.0 mb 0.00 in0.0 mm 0.00 in0.0 mm 0.00 in0.0 mm
07:40 AM 34.9°F1.6°C 29.0°F-1.7°C 79% Calm Calm 2.9 mph4.7 kmh 30.21 in1023.0 mb 0.00 in0.0 mm 0.00 in0.0 mm 0.00 in0.0 mm
07:35 AM 35.1°F1.7°C 29.5°F-1.4°C 80% 2.7 mph E4.3 kmh E 2.9 mph4.7 kmh 30.21 in1023.0 mb 0.00 in0.0 mm 0.00 in0.0 mm 0.00 in0.0 mm
07:30 AM 35.2°F1.8°C 29.7°F-1.3°C 80% 2.0 mph ENE3.2 kmh ENE 3.8 mph6.1 kmh 30.21 in1023.0 mb 0.00 in0.0 mm 0.00 in0.0 mm 0.00 in0.0 mm
07:25 AM 35.1°F1.7°C 29.5°F-1.4°C 80% 2.7 mph E4.3 kmh E 4.0 mph6.4 kmh 30.21 in1023.0 mb 0.00 in0.0 mm 0.00 in0.0 mm 0.00 in0.0 mm
07:20 AM 34.9°F1.6°C 29.0°F-1.7°C 79% 3.4 mph E5.5 kmh E 4.0 mph6.4 kmh 30.21 in1023.0 mb 0.00 in0.0 mm 0.00 in0.0 mm 0.00 in0.0 mm
07:15 AM 35.1°F1.7°C 29.2°F-1.6°C 79% 0.9 mph N1.4 kmh N 2.0 mph3.2 kmh 30.21 in1023.0 mb 0.00 in0.0 mm 0.00 in0.0 mm 0.00 in0.0 mm
07:10 AM 35.1°F1.7°C 29.2°F-1.6°C 79% 1.6 mph S2.6 kmh S 5.8 mph9.3 kmh 30.21 in1023.0 mb 0.00 in0.0 mm 0.00 in0.0 mm 0.00 in0.0 mm
07:05 AM 35.1°F1.7°C 29.2°F-1.6°C 79% 1.6 mph S2.6 kmh S 5.8 mph9.3 kmh 30.21 in1023.0 mb 0.00 in0.0 mm 0.00 in0.0 mm 0.00 in0.0 mm
07:00 AM 35.2°F1.8°C 29.4°F-1.4°C 79% 1.6 mph NW2.6 kmh NW 6.5 mph10.5 kmh 30.21 in1023.0 mb 0.00 in0.0 mm 0.00 in0.0 mm 0.00 in0.0 mm
06:55 AM 35.1°F1.7°C 29.2°F-1.6°C 79% 4.7 mph SSE7.6 kmh SSE 6.5 mph10.5 kmh 30.21 in1023.0 mb 0.00 in0.0 mm 0.00 in0.0 mm 0.00 in0.0 mm
06:50 AM 35.1°F1.7°C 29.8°F-1.2°C 81% 4.3 mph ESE6.9 kmh ESE 4.9 mph7.9 kmh 30.21 in1023.0 mb 0.00 in0.0 mm 0.00 in0.0 mm 0.00 in0.0 mm
06:45 AM 34.9°F1.6°C 28.7°F-1.8°C 78% 2.0 mph ESE3.2 kmh ESE 2.9 mph4.7 kmh 30.21 in1023.0 mb 0.00 in0.0 mm 0.00 in0.0 mm 0.00 in0.0 mm
06:40 AM 34.9°F1.6°C 28.7°F-1.8°C 78% 2.0 mph S3.2 kmh S 4.5 mph7.2 kmh 30.21 in1023.0 mb 0.00 in0.0 mm 0.00 in0.0 mm 0.00 in0.0 mm
06:35 AM 35.1°F1.7°C 28.6°F-1.9°C 77% 3.1 mph ESE5.0 kmh ESE 4.7 mph7.6 kmh 30.21 in1023.0 mb 0.00 in0.0 mm 0.00 in0.0 mm 0.00 in0.0 mm
06:30 AM 35.2°F1.8°C 29.4°F-1.4°C 79% 0.9 mph ENE1.4 kmh ENE 4.7 mph7.6 kmh 30.21 in1023.0 mb 0.00 in0.0 mm 0.00 in0.0 mm 0.00 in0.0 mm
06:25 AM 35.1°F1.7°C 29.2°F-1.6°C 79% 3.1 mph ENE5.0 kmh ENE 3.4 mph5.5 kmh 30.21 in1023.0 mb 0.00 in0.0 mm 0.00 in0.0 mm 0.00 in0.0 mm
06:20 AM 34.9°F1.6°C 28.7°F-1.8°C 78% 0.9 mph NE1.4 kmh NE 3.8 mph6.1 kmh 30.21 in1023.0 mb 0.00 in0.0 mm 0.00 in0.0 mm 0.00 in0.0 mm
06:15 AM 34.7°F1.5°C 28.5°F-1.9°C 78% 2.0 mph S3.2 kmh S 5.4 mph8.7 kmh 30.21 in1023.0 mb 0.00 in0.0 mm 0.00 in0.0 mm 0.00 in0.0 mm
06:10 AM 34.5°F1.4°C 28.4°F-2.0°C 78% 4.7 mph S7.6 kmh S 5.4 mph8.7 kmh 30.21 in1023.0 mb 0.00 in0.0 mm 0.00 in0.0 mm 0.00 in0.0 mm
06:05 AM 34.9°F1.6°C 28.7°F-1.8°C 78% 2.5 mph S4.0 kmh S 3.6 mph5.8 kmh 30.24 in1024.0 mb 0.00 in0.0 mm 0.00 in0.0 mm 0.00 in0.0 mm
06:00 AM 34.9°F1.6°C 28.7°F-1.8°C 78% Calm Calm 4.9 mph7.9 kmh 30.24 in1024.0 mb 0.00 in0.0 mm 0.00 in0.0 mm 0.00 in0.0 mm
05:55 AM 35.1°F1.7°C 29.5°F-1.4°C 80% 1.6 mph E2.6 kmh E 4.9 mph7.9 kmh 30.24 in1024.0 mb 0.00 in0.0 mm 0.00 in0.0 mm 0.00 in0.0 mm
05:50 AM 34.9°F1.6°C 29.0°F-1.7°C 79% 3.6 mph NE5.8 kmh NE 4.0 mph6.4 kmh 30.24 in1024.0 mb 0.00 in0.0 mm 0.00 in0.0 mm 0.00 in0.0 mm
05:45 AM 34.9°F1.6°C 29.0°F-1.7°C 79% 1.6 mph N2.6 kmh N 3.4 mph5.5 kmh 30.24 in1024.0 mb 0.00 in0.0 mm 0.00 in0.0 mm 0.00 in0.0 mm
05:40 AM 34.5°F1.4°C 28.7°F-1.8°C 79% Calm Calm 3.6 mph5.8 kmh 30.24 in1024.0 mb 0.00 in0.0 mm 0.00 in0.0 mm 0.00 in0.0 mm
05:35 AM 34.3°F1.3°C 28.5°F-1.9°C 79% Calm Calm 3.6 mph5.8 kmh 30.21 in1023.0 mb 0.00 in0.0 mm 0.00 in0.0 mm 0.00 in0.0 mm
05:30 AM 34.5°F1.4°C 28.7°F-1.8°C 79% 3.1 mph SE5.0 kmh SE 3.4 mph5.5 kmh 30.21 in1023.0 mb 0.00 in0.0 mm 0.00 in0.0 mm 0.00 in0.0 mm
05:25 AM 34.5°F1.4°C 28.4°F-2.0°C 78% Calm Calm 4.9 mph7.9 kmh 30.21 in1023.0 mb 0.00 in0.0 mm 0.00 in0.0 mm 0.00 in0.0 mm
05:20 AM 34.3°F1.3°C 28.2°F-2.1°C 78% 3.6 mph SW5.8 kmh SW 4.9 mph7.9 kmh 30.21 in1023.0 mb 0.00 in0.0 mm 0.00 in0.0 mm 0.00 in0.0 mm
05:15 AM 34.7°F1.5°C 28.5°F-1.9°C 78% Calm Calm 5.4 mph8.7 kmh 30.21 in1023.0 mb 0.00 in0.0 mm 0.00 in0.0 mm 0.00 in0.0 mm
05:10 AM 34.5°F1.4°C 28.4°F-2.0°C 78% 2.0 mph ENE3.2 kmh ENE 6.5 mph10.5 kmh 30.21 in1023.0 mb 0.00 in0.0 mm 0.00 in0.0 mm 0.00 in0.0 mm
05:05 AM 34.3°F1.3°C 28.2°F-2.1°C 78% 3.4 mph E5.5 kmh E 6.5 mph10.5 kmh 30.24 in1024.0 mb 0.00 in0.0 mm 0.00 in0.0 mm 0.00 in0.0 mm
05:00 AM 34.0°F1.1°C 27.8°F-2.3°C 78% 4.0 mph SE6.4 kmh SE 6.3 mph10.1 kmh 30.24 in1024.0 mb 0.00 in0.0 mm 0.00 in0.0 mm 0.00 in0.0 mm
04:55 AM 34.0°F1.1°C 26.9°F-2.8°C 75% 2.9 mph N4.7 kmh N 4.3 mph6.9 kmh 30.24 in1024.0 mb 0.00 in0.0 mm 0.00 in0.0 mm 0.00 in0.0 mm
04:50 AM 34.3°F1.3°C 27.9°F-2.3°C 77% Calm Calm 3.6 mph5.8 kmh 30.24 in1024.0 mb 0.00 in0.0 mm 0.00 in0.0 mm 0.00 in0.0 mm
04:45 AM 34.0°F1.1°C 27.2°F-2.7°C 76% 1.1 mph S1.8 kmh S 2.5 mph4.0 kmh 30.24 in1024.0 mb 0.00 in0.0 mm 0.00 in0.0 mm 0.00 in0.0 mm
04:40 AM 34.3°F1.3°C 27.6°F-2.4°C 76% Calm Calm 1.3 mph2.1 kmh 30.24 in1024.0 mb 0.00 in0.0 mm 0.00 in0.0 mm 0.00 in0.0 mm